| Date | Time | Temp. (oF) | Dew Point (oF) | Rel. Hum. (%) | Press. (in.) | Wind Dir. | Wind Speed (mph) | Hourly Rainfall (in.) |
|
|---|---|---|---|---|---|---|---|---|---|
| 1 | 11/26 | 00:00 | 39 | 32 | 78 | 30.70 | SE | 0 | 0.00 |
| 2 | 11/25 | 23:00 | 39 | 31 | 75 | 30.68 | SE | 4 | 0.00 |
| 3 | 11/25 | 22:00 | 42 | 33 | 72 | 30.66 | ESE | 0 | 0.00 |
| 4 | 11/25 | 21:00 | 43 | 33 | 69 | 30.66 | S | 2 | 0.00 |
| 5 | 11/25 | 20:00 | 43 | 32 | 67 | 30.68 | S | 3 | 0.00 |
| 6 | 11/25 | 19:00 | 44 | 33 | 66 | 30.67 | SE | 3 | 0.00 |
| 7 | 11/25 | 18:00 | 44 | 30 | 58 | 30.64 | ESE | 3 | 0.00 |
| 8 | 11/25 | 17:00 | 48 | 30 | 51 | 30.61 | SE | 2 | 0.00 |
| 9 | 11/25 | 16:00 | 51 | 30 | 46 | 30.60 | S | 6 | 0.00 |
| 10 | 11/25 | 15:00 | 52 | 32 | 47 | 30.60 | SE | 9 | 0.00 |
| 11 | 11/25 | 14:00 | 52 | 31 | 45 | 30.60 | S | 4 | 0.00 |
| 12 | 11/25 | 13:00 | 52 | 31 | 45 | 30.62 | SSE | 4 | 0.00 |
| 13 | 11/25 | 12:00 | 50 | 32 | 50 | 30.63 | E | 6 | 0.00 |
| 14 | 11/25 | 11:00 | 46 | 31 | 56 | 30.64 | SE | 4 | 0.00 |
| 15 | 11/25 | 10:00 | 39 | 29 | 69 | 30.65 | ENE | 3 | 0.00 |
| 16 | 11/25 | 09:00 | 34 | 29 | 83 | 30.64 | ESE | 2 | 0.00 |
| 17 | 11/25 | 08:00 | 27 | 24 | 90 | 30.62 | ESE | 0 | 0.00 |
| 18 | 11/25 | 07:00 | 25 | 21 | 88 | 30.60 | NNE | 0 | 0.00 |
| 19 | 11/25 | 06:00 | 25 | 21 | 88 | 30.58 | SSW | 0 | 0.00 |
| 20 | 11/25 | 05:00 | 26 | 22 | 88 | 30.55 | SSW | 0 | 0.00 |
| 21 | 11/25 | 04:00 | 27 | 23 | 87 | 30.52 | NNE | 0 | 0.00 |
| 22 | 11/25 | 03:00 | 28 | 24 | 86 | 30.51 | SSW | 0 | 0.00 |
| 23 | 11/25 | 02:00 | 29 | 24 | 84 | 30.50 | NE | 0 | 0.00 |
| 24 | 11/25 | 01:00 | 29 | 23 | 80 | 30.48 | SSW | 0 | 0.00 |